createdAt,value
2018-04-08T00:01:28.232Z,6.57
2018-04-08T00:03:55.845Z,6.27
2018-04-08T00:06:23.441Z,6.20
2018-04-08T00:08:51.076Z,6.60
2018-04-08T00:11:28.565Z,6.17
2018-04-08T00:13:56.135Z,7.37
2018-04-08T00:16:23.715Z,7.87
2018-04-08T00:18:51.285Z,7.17
2018-04-08T00:21:18.889Z,8.00
2018-04-08T00:23:46.459Z,7.37
2018-04-08T00:26:14.071Z,8.87
2018-04-08T00:28:42.451Z,6.50
2018-04-08T00:31:10.819Z,6.90
2018-04-08T00:33:38.429Z,7.70
2018-04-08T00:36:06.105Z,6.77
2018-04-08T00:38:33.689Z,6.70
2018-04-08T00:41:01.255Z,7.67
2018-04-08T00:43:28.865Z,6.83
2018-04-08T00:45:56.469Z,7.07
2018-04-08T00:48:41.161Z,6.43
2018-04-08T00:51:08.790Z,6.10
2018-04-08T00:53:36.573Z,6.73
2018-04-08T00:56:05.348Z,6.45
2018-04-08T00:58:32.947Z,6.10
2018-04-08T01:01:00.623Z,6.60
2018-04-08T01:03:28.225Z,5.50
2018-04-08T01:05:56.593Z,6.83
2018-04-08T01:08:24.241Z,6.60
2018-04-08T01:10:51.842Z,6.47
2018-04-08T01:16:24.503Z,6.03
2018-04-08T01:18:52.020Z,6.93
2018-04-08T01:21:19.535Z,7.43
2018-04-08T01:23:47.068Z,8.23
2018-04-08T01:26:15.339Z,7.30
2018-04-08T01:28:43.622Z,6.80
2018-04-08T01:31:11.910Z,7.03
2018-04-08T01:33:39.441Z,6.70
2018-04-08T01:36:06.956Z,6.10
2018-04-08T01:38:34.552Z,6.63
2018-04-08T01:41:02.189Z,6.23
2018-04-08T01:43:29.828Z,6.50
2018-04-08T01:45:57.478Z,7.10
2018-04-08T01:48:25.058Z,6.23
2018-04-08T01:50:53.428Z,6.37
2018-04-08T01:53:21.771Z,6.67
2018-04-08T01:55:49.378Z,6.40
2018-04-08T01:58:17.710Z,7.23
2018-04-08T02:00:45.313Z,8.07
2018-04-08T02:03:12.874Z,8.07
2018-04-08T02:05:40.520Z,8.30
2018-04-08T02:08:09.054Z,7.67
2018-04-08T02:10:36.650Z,8.50
2018-04-08T02:13:04.266Z,8.60
2018-04-08T02:15:31.928Z,8.50
2018-04-08T02:17:59.505Z,8.30
2018-04-08T02:20:27.127Z,9.00
2018-04-08T02:22:54.710Z,8.40
2018-04-08T02:25:22.280Z,6.97
2018-04-08T02:27:49.866Z,8.10
2018-04-08T02:30:17.432Z,6.70
2018-04-08T02:32:45.034Z,6.83
2018-04-08T02:35:12.661Z,8.80
2018-04-08T02:37:40.262Z,8.03
2018-04-08T02:40:07.835Z,8.20
2018-04-08T02:42:35.446Z,7.37
2018-04-08T02:45:03.013Z,6.70
2018-04-08T02:47:30.613Z,8.80
2018-04-08T02:49:59.009Z,8.93
2018-04-08T02:52:26.620Z,9.50
2018-04-08T02:54:54.205Z,8.80
2018-04-08T03:05:11.673Z,7.23
2018-04-08T03:07:39.260Z,7.20
2018-04-08T03:10:12.001Z,8.47
2018-04-08T03:13:04.510Z,8.37
2018-04-08T03:15:32.123Z,8.07
2018-04-08T03:18:01.247Z,7.80
2018-04-08T03:20:29.647Z,7.30
2018-04-08T03:22:57.645Z,6.90
2018-04-08T03:25:25.257Z,6.80
2018-04-08T03:27:56.859Z,6.50
2018-04-08T03:30:24.465Z,6.60
2018-04-08T03:32:52.078Z,7.33
2018-04-08T03:35:19.680Z,7.43
2018-04-08T03:37:47.285Z,7.43
2018-04-08T03:40:15.647Z,8.40
2018-04-08T03:42:44.094Z,7.43
2018-04-08T03:45:11.689Z,7.43
2018-04-08T03:47:39.286Z,7.60
2018-04-08T03:50:06.876Z,6.50
2018-04-08T03:52:34.518Z,6.93
2018-04-08T03:55:03.747Z,6.50
2018-04-08T03:57:31.407Z,7.37
2018-04-08T03:59:59.823Z,8.40
2018-04-08T04:02:27.483Z,7.37
2018-04-08T04:04:55.091Z,6.00
2018-04-08T04:07:23.581Z,6.03
2018-04-08T04:09:51.223Z,6.80
2018-04-08T04:12:19.794Z,7.50
2018-04-08T04:14:47.387Z,7.37
2018-04-08T04:17:14.993Z,8.23
2018-04-08T04:19:54.275Z,8.33
2018-04-08T04:25:52.381Z,7.00
2018-04-08T04:28:21.545Z,5.80
2018-04-08T04:30:49.835Z,8.37
2018-04-08T04:33:17.347Z,6.40
2018-04-08T04:35:44.837Z,6.10
2018-04-08T04:38:12.379Z,5.73
2018-04-08T04:40:39.893Z,5.80
2018-04-08T04:43:08.194Z,6.77
2018-04-08T04:45:35.735Z,8.10
2018-04-08T04:48:03.263Z,6.37
2018-04-08T04:50:30.796Z,6.53
2018-04-08T04:52:59.460Z,6.97
2018-04-08T05:01:24.482Z,6.90
2018-04-08T05:03:52.022Z,7.23
2018-04-08T05:06:20.301Z,7.83
2018-04-08T05:08:48.705Z,8.30
2018-04-08T05:11:16.321Z,9.87
2018-04-08T05:13:44.039Z,7.70
2018-04-08T05:16:12.383Z,6.93
2018-04-08T05:18:39.973Z,7.90
2018-04-08T05:21:08.385Z,7.90
2018-04-08T05:23:36.755Z,7.77
2018-04-08T05:26:04.306Z,8.97
2018-04-08T05:28:46.194Z,7.93
2018-04-08T05:31:14.028Z,7.20
2018-04-08T05:33:41.695Z,7.40
2018-04-08T05:36:09.289Z,7.30
2018-04-08T05:41:36.295Z,12.23
2018-04-08T05:44:03.923Z,11.73
2018-04-08T05:46:31.558Z,13.20
2018-04-08T05:48:59.153Z,13.13
2018-04-08T05:51:26.991Z,14.07
2018-04-08T05:53:54.643Z,12.17
2018-04-08T05:56:23.059Z,13.27
2018-04-08T05:58:50.690Z,12.30
2018-04-08T06:01:18.304Z,13.50
2018-04-08T06:03:45.956Z,13.70
2018-04-08T06:06:13.566Z,13.70
2018-04-08T06:08:41.960Z,14.70
2018-04-08T06:11:09.715Z,14.20
2018-04-08T06:13:37.351Z,14.73
2018-04-08T06:16:04.941Z,13.37
2018-04-08T06:18:32.561Z,13.93
2018-04-08T06:21:00.168Z,14.33
2018-04-08T06:23:27.869Z,14.20
2018-04-08T06:25:55.511Z,14.13
2018-04-08T06:28:23.131Z,15.37
2018-04-08T06:30:50.720Z,15.80
2018-04-08T06:33:18.364Z,14.97
2018-04-08T06:35:46.749Z,14.93
2018-04-08T06:38:15.544Z,15.13
2018-04-08T06:40:43.153Z,15.70
2018-04-08T06:43:10.743Z,15.27
2018-04-08T06:45:39.112Z,15.30
2018-04-08T06:48:06.720Z,15.30
2018-04-08T06:50:34.323Z,15.87
2018-04-08T06:53:01.918Z,15.90
2018-04-08T06:55:30.295Z,15.20
2018-04-08T06:57:58.643Z,16.20
2018-04-08T07:04:16.969Z,16.00
2018-04-08T07:06:44.602Z,15.33
2018-04-08T07:09:12.474Z,15.27
2018-04-08T07:11:40.071Z,15.20
2018-04-08T07:14:07.710Z,14.80
2018-04-08T07:16:35.334Z,14.70
2018-04-08T07:19:03.268Z,14.03
2018-04-08T07:21:30.894Z,14.80
2018-04-08T07:23:58.486Z,13.73
2018-04-08T07:26:26.133Z,12.80
2018-04-08T07:28:53.745Z,12.93
2018-04-08T07:31:22.136Z,14.30
2018-04-08T07:33:49.752Z,13.60
2018-04-08T07:36:17.366Z,13.90
2018-04-08T07:38:44.983Z,13.43
2018-04-08T07:41:12.608Z,13.43
2018-04-08T07:43:41.038Z,13.37
2018-04-08T07:46:08.665Z,12.87
2018-04-08T07:48:36.306Z,12.52
2018-04-08T07:51:04.674Z,13.13
2018-04-08T07:53:33.825Z,13.67
2018-04-08T07:56:01.383Z,12.60
2018-04-08T07:58:29.052Z,12.50
2018-04-08T08:00:56.679Z,13.97
2018-04-08T08:03:24.282Z,13.70
2018-04-08T08:05:51.888Z,13.70
2018-04-08T08:08:19.462Z,13.70
2018-04-08T08:10:47.046Z,14.77
2018-04-08T08:13:14.778Z,13.47
2018-04-08T08:15:42.413Z,12.97
2018-04-08T08:18:09.994Z,12.90
2018-04-08T08:20:37.613Z,13.20
2018-04-08T08:23:06.047Z,13.13
2018-04-08T08:25:34.409Z,13.50
2018-04-08T08:28:02.030Z,13.00
2018-04-08T08:30:29.669Z,13.47
2018-04-08T08:32:57.288Z,13.03
2018-04-08T08:35:24.858Z,13.20
2018-04-08T08:37:52.492Z,13.38
2018-04-08T08:40:20.092Z,13.93
2018-04-08T08:42:47.728Z,11.30
2018-04-08T08:53:46.734Z,11.23
2018-04-08T08:56:14.255Z,11.30
2018-04-08T08:58:42.573Z,10.90
2018-04-08T09:01:10.092Z,11.97
2018-04-08T09:03:37.668Z,12.13
2018-04-08T09:06:05.972Z,11.47
2018-04-08T09:08:39.428Z,11.55
2018-04-08T09:11:06.958Z,12.50
2018-04-08T09:13:34.503Z,10.43
2018-04-08T09:16:02.017Z,10.90
2018-04-08T09:18:30.305Z,12.02
2018-04-08T09:21:16.329Z,12.10
2018-04-08T09:23:49.484Z,11.20
2018-04-08T09:26:17.012Z,10.93
2018-04-08T09:28:54.734Z,11.10
2018-04-08T09:31:29.454Z,10.30
2018-04-08T09:34:10.178Z,10.70
2018-04-08T09:36:37.698Z,10.80
2018-04-08T09:39:05.993Z,10.17
2018-04-08T09:41:33.530Z,10.00
2018-04-08T09:44:01.049Z,9.50
2018-04-08T09:46:28.613Z,10.17
2018-04-08T09:48:56.128Z,10.27
2018-04-08T09:51:47.108Z,9.70
2018-04-08T09:54:16.554Z,9.90
2018-04-08T09:56:46.801Z,9.47
2018-04-08T09:59:15.079Z,9.50
2018-04-08T10:05:06.798Z,9.57
2018-04-08T10:07:55.918Z,9.03
2018-04-08T10:10:36.275Z,9.23
2018-04-08T10:13:03.845Z,8.27
2018-04-08T10:18:25.350Z,7.90
2018-04-08T10:20:52.859Z,7.23
2018-04-08T10:26:13.671Z,9.20
2018-04-08T10:28:55.749Z,8.57
2018-04-08T10:31:30.307Z,8.10
2018-04-08T10:33:57.883Z,13.67
2018-04-08T10:36:25.437Z,10.37
2018-04-08T10:38:52.962Z,9.07
2018-04-08T10:41:20.575Z,8.50
2018-04-08T10:43:48.865Z,8.63
2018-04-08T10:46:16.403Z,7.60
2018-04-08T10:48:43.946Z,8.52
2018-04-08T10:56:58.511Z,8.57
2018-04-08T10:59:26.871Z,6.90
2018-04-08T11:01:54.389Z,6.63
2018-04-08T11:04:21.909Z,6.20
2018-04-08T11:10:07.309Z,7.40
2018-04-08T11:12:34.846Z,8.47
2018-04-08T11:15:03.130Z,8.60
2018-04-08T11:17:30.641Z,8.10
2018-04-08T11:19:58.931Z,7.43
2018-04-08T11:22:26.490Z,7.47
2018-04-08T11:24:53.980Z,8.53
2018-04-08T11:27:21.492Z,7.17
2018-04-08T11:32:47.985Z,7.87
2018-04-08T11:35:16.258Z,7.07
2018-04-08T11:37:43.776Z,7.50
2018-04-08T11:40:11.306Z,7.97
2018-04-08T11:42:38.827Z,7.43
2018-04-08T11:45:06.351Z,7.93
2018-04-08T11:47:33.893Z,7.43
2018-04-08T11:50:01.536Z,7.83
2018-04-08T11:52:29.087Z,8.20
2018-04-08T11:54:57.315Z,7.90
2018-04-08T11:57:24.826Z,7.30
2018-04-08T11:59:52.338Z,7.90
2018-04-08T12:02:35.054Z,7.57
2018-04-08T12:05:04.382Z,7.63
2018-04-08T12:07:32.004Z,8.57
2018-04-08T12:09:59.551Z,6.77
2018-04-08T12:12:27.092Z,7.00
2018-04-08T12:14:54.590Z,6.37
2018-04-08T12:17:22.471Z,7.47
2018-04-08T12:19:50.026Z,6.83
2018-04-08T12:22:17.704Z,6.03
2018-04-08T12:24:45.860Z,6.33
2018-04-08T12:27:14.414Z,7.00
2018-04-08T12:29:41.976Z,6.93
2018-04-08T12:32:09.600Z,6.80
2018-04-08T12:34:37.936Z,5.60
2018-04-08T12:37:05.457Z,5.50
2018-04-08T12:39:38.426Z,6.25
2018-04-08T12:42:06.082Z,6.68
2018-04-08T12:44:33.630Z,7.30
2018-04-08T12:47:01.130Z,5.05
2018-04-08T12:49:28.770Z,5.32
2018-04-08T12:51:56.326Z,4.62
2018-04-08T12:54:24.629Z,5.28
2018-04-08T12:56:52.134Z,4.90
2018-04-08T12:59:20.422Z,5.65
2018-04-08T13:01:47.942Z,6.07
2018-04-08T13:04:15.455Z,5.28
2018-04-08T13:06:42.961Z,5.15
2018-04-08T13:09:10.473Z,5.12
2018-04-08T13:11:37.984Z,5.50
2018-04-08T13:14:05.519Z,6.03
2018-04-08T13:16:33.071Z,4.62
2018-04-08T13:19:01.240Z,4.43
2018-04-08T13:21:28.848Z,4.62
2018-04-08T13:23:57.122Z,4.53
2018-04-08T13:26:25.424Z,4.32
2018-04-08T13:28:52.941Z,4.40
2018-04-08T13:31:20.493Z,4.37
2018-04-08T13:33:47.992Z,4.15
2018-04-08T13:36:15.522Z,4.65
2018-04-08T13:38:43.030Z,5.30
2018-04-08T13:41:10.526Z,4.72
2018-04-08T13:43:38.060Z,5.05
2018-04-08T13:46:05.585Z,4.43
2018-04-08T13:48:33.128Z,4.80
2018-04-08T13:51:01.402Z,3.90
2018-04-08T13:53:29.679Z,5.32
2018-04-08T13:55:57.952Z,5.80
2018-04-08T13:58:26.231Z,5.13
2018-04-08T14:00:54.525Z,4.50
2018-04-08T14:03:22.834Z,4.07
2018-04-08T14:05:50.342Z,4.63
2018-04-08T14:08:18.648Z,5.27
2018-04-08T14:10:46.144Z,4.00
2018-04-08T14:13:23.178Z,4.10
2018-04-08T14:15:51.068Z,4.30
2018-04-08T14:18:18.583Z,5.50
2018-04-08T14:20:46.879Z,4.40
2018-04-08T14:23:15.160Z,3.75
2018-04-08T14:25:42.682Z,4.65
2018-04-08T14:28:10.251Z,4.00
2018-04-08T14:30:37.750Z,4.87
2018-04-08T14:33:05.322Z,4.40
2018-04-08T14:35:32.856Z,6.62
2018-04-08T14:38:00.565Z,4.95
2018-04-08T14:40:28.260Z,4.95
2018-04-08T14:42:55.844Z,4.00
2018-04-08T14:45:23.876Z,3.70
2018-04-08T14:47:51.424Z,3.80
2018-04-08T14:50:18.944Z,3.72
2018-04-08T14:52:47.236Z,3.50
2018-04-08T14:55:14.760Z,3.42
2018-04-08T14:57:42.278Z,4.40
2018-04-08T15:00:11.598Z,4.37
2018-04-08T15:02:45.522Z,4.97
2018-04-08T15:05:33.033Z,5.30
2018-04-08T15:08:00.577Z,4.12
2018-04-08T15:10:28.080Z,3.60
2018-04-08T15:12:56.377Z,3.78
2018-04-08T15:15:23.884Z,3.67
2018-04-08T15:17:51.456Z,3.87
2018-04-08T15:20:18.980Z,4.12
2018-04-08T15:22:46.485Z,3.80
2018-04-08T15:25:13.996Z,4.10
2018-04-08T15:27:41.524Z,4.28
2018-04-08T15:33:04.738Z,4.43
2018-04-08T15:35:32.270Z,3.55
2018-04-08T15:37:59.803Z,3.47
2018-04-08T15:40:27.351Z,3.58
2018-04-08T15:42:55.164Z,4.37
2018-04-08T15:45:22.778Z,4.45
2018-04-08T15:47:56.257Z,4.43
2018-04-08T15:50:23.839Z,4.07
2018-04-08T15:52:51.468Z,3.60
2018-04-08T15:55:19.909Z,4.28
2018-04-08T15:57:58.472Z,4.10
2018-04-08T16:00:31.509Z,3.50
2018-04-08T16:03:01.950Z,3.97
2018-04-08T16:05:30.535Z,3.50
2018-04-08T16:07:58.129Z,3.30
2018-04-08T16:10:36.031Z,4.07
2018-04-08T16:13:03.641Z,3.50
2018-04-08T16:15:31.269Z,3.50
2018-04-08T16:17:58.851Z,3.93
2018-04-08T16:20:34.338Z,4.40
2018-04-08T16:23:02.175Z,4.67
2018-04-08T16:25:29.796Z,4.70
2018-04-08T16:27:57.373Z,4.83
2018-04-08T16:30:25.003Z,4.60
2018-04-08T16:32:52.661Z,4.67
2018-04-08T16:35:20.403Z,3.67
2018-04-08T16:37:48.016Z,4.17
2018-04-08T16:40:15.893Z,4.47
2018-04-08T16:42:44.287Z,4.43
2018-04-08T16:45:11.959Z,4.87
2018-04-08T16:47:39.562Z,4.47
2018-04-08T16:50:07.197Z,4.40
2018-04-08T16:52:34.882Z,4.40
2018-04-08T16:55:02.463Z,4.47
2018-04-08T16:57:30.141Z,4.83
2018-04-08T16:59:58.593Z,5.53
2018-04-08T17:02:26.297Z,6.30
2018-04-08T17:04:54.671Z,5.50
2018-04-08T17:07:22.383Z,5.40
2018-04-08T17:09:50.007Z,6.40
2018-04-08T17:12:17.638Z,5.70
2018-04-08T17:14:45.214Z,6.43
2018-04-08T17:17:14.437Z,6.70
2018-04-08T17:19:42.011Z,6.73
2018-04-08T17:22:09.555Z,6.40
2018-04-08T17:24:37.915Z,6.43
2018-04-08T17:27:06.305Z,6.77
2018-04-08T17:29:33.895Z,6.18
2018-04-08T17:32:01.513Z,6.37
2018-04-08T17:34:29.121Z,6.17
2018-04-08T17:36:58.536Z,6.30
2018-04-08T17:39:27.139Z,6.57
2018-04-08T17:41:54.711Z,6.40
2018-04-08T17:44:23.100Z,6.40
2018-04-08T17:46:51.433Z,6.37
2018-04-08T17:49:19.060Z,6.20
2018-04-08T17:51:46.649Z,5.70
2018-04-08T17:54:14.259Z,5.90
2018-04-08T17:56:42.683Z,6.80
2018-04-08T17:59:10.289Z,6.30
2018-04-08T18:01:38.646Z,6.50
2018-04-08T18:04:06.257Z,5.80
2018-04-08T18:06:33.948Z,6.13
2018-04-08T18:09:01.526Z,6.30
2018-04-08T18:11:29.112Z,6.40
2018-04-08T18:13:58.708Z,6.70
2018-04-08T18:16:26.307Z,6.20
2018-04-08T18:18:53.881Z,6.30
2018-04-08T18:21:21.476Z,5.93
2018-04-08T18:23:49.114Z,5.90
2018-04-08T18:26:16.776Z,6.30
2018-04-08T18:28:44.444Z,6.43
2018-04-08T18:31:12.039Z,6.20
2018-04-08T18:33:39.659Z,6.20
2018-04-08T18:36:07.432Z,6.70
2018-04-08T18:38:35.002Z,5.70
2018-04-08T18:41:02.599Z,6.13
2018-04-08T18:43:30.950Z,6.93
2018-04-08T18:45:58.539Z,6.50
2018-04-08T18:48:26.940Z,6.30
2018-04-08T18:50:54.561Z,6.80
2018-04-08T18:53:22.173Z,6.67
2018-04-08T18:55:49.786Z,6.37
2018-04-08T18:58:18.867Z,6.30
2018-04-08T19:00:46.456Z,6.37
2018-04-08T19:03:14.893Z,6.27
2018-04-08T19:05:42.490Z,6.87
2018-04-08T19:08:10.885Z,6.40
2018-04-08T19:10:39.270Z,6.60
2018-04-08T19:13:07.968Z,6.50
2018-04-08T19:15:35.571Z,6.87
2018-04-08T19:18:03.928Z,6.77
2018-04-08T19:20:31.537Z,6.90
2018-04-08T19:22:59.961Z,6.50
2018-04-08T19:25:27.676Z,6.70
2018-04-08T19:27:56.032Z,6.70
2018-04-08T19:30:23.645Z,6.80
2018-04-08T19:32:51.333Z,6.60
2018-04-08T19:35:19.552Z,7.27
2018-04-08T19:37:48.762Z,6.77
2018-04-08T19:40:17.116Z,7.00
2018-04-08T19:42:45.687Z,6.60
2018-04-08T19:45:13.434Z,6.50
2018-04-08T19:47:41.059Z,7.23
2018-04-08T19:50:08.707Z,6.70
2018-04-08T19:52:37.095Z,6.43
2018-04-08T19:55:05.027Z,6.80
2018-04-08T19:57:33.561Z,6.77
2018-04-08T20:00:01.851Z,6.62
2018-04-08T20:02:29.461Z,6.67
2018-04-08T20:05:01.723Z,6.77
2018-04-08T20:07:32.827Z,7.03
2018-04-08T20:10:00.445Z,7.33
2018-04-08T20:12:28.791Z,6.60
2018-04-08T20:15:02.020Z,7.07
2018-04-08T20:17:37.017Z,7.20
2018-04-08T20:20:08.529Z,7.45
2018-04-08T20:22:36.188Z,6.63
2018-04-08T20:25:05.733Z,7.50
2018-04-08T20:27:33.369Z,6.30
2018-04-08T20:30:01.012Z,7.07
2018-04-08T20:32:28.627Z,5.83
2018-04-08T20:34:56.293Z,4.73
2018-04-08T20:37:23.891Z,4.87
2018-04-08T20:39:54.298Z,5.80
2018-04-08T20:42:22.421Z,6.97
2018-04-08T20:44:50.011Z,5.60
2018-04-08T20:47:17.865Z,4.63
2018-04-08T20:49:45.505Z,5.20
2018-04-08T20:52:13.195Z,4.87
2018-04-08T20:54:40.783Z,4.73
2018-04-08T20:57:09.158Z,5.20
2018-04-08T20:59:37.503Z,5.60
2018-04-08T21:02:05.113Z,5.40
2018-04-08T21:04:33.496Z,7.40
2018-04-08T21:07:01.116Z,6.83
2018-04-08T21:09:28.747Z,7.10
2018-04-08T21:11:56.351Z,7.60
2018-04-08T21:14:23.917Z,7.30
2018-04-08T21:16:52.291Z,7.00
2018-04-08T21:19:20.676Z,6.60
2018-04-08T21:21:49.038Z,7.33
2018-04-08T21:24:16.641Z,6.50
2018-04-08T21:26:46.265Z,5.67
2018-04-08T21:29:13.867Z,5.27
2018-04-08T21:31:41.600Z,4.97
2018-04-08T21:34:09.209Z,5.43
2018-04-08T21:36:37.593Z,5.70
2018-04-08T21:39:05.974Z,6.40
2018-04-08T21:41:34.344Z,5.80
2018-04-08T21:44:02.707Z,6.17
2018-04-08T21:46:30.272Z,5.83
2018-04-08T21:48:57.863Z,5.90
2018-04-08T21:51:25.482Z,7.93
2018-04-08T21:53:53.827Z,5.90
2018-04-08T21:56:21.423Z,5.73
2018-04-08T21:58:48.997Z,6.43
2018-04-08T22:01:16.587Z,6.60
2018-04-08T22:03:44.218Z,7.23
2018-04-08T22:06:11.834Z,6.00
2018-04-08T22:08:39.463Z,6.40
2018-04-08T22:11:07.081Z,5.77
2018-04-08T22:13:34.709Z,5.77
2018-04-08T22:16:02.299Z,5.77
2018-04-08T22:18:30.147Z,6.00
2018-04-08T22:20:57.757Z,6.73
2018-04-08T22:23:26.214Z,8.03
2018-04-08T22:25:53.954Z,6.90
2018-04-08T22:28:21.555Z,7.77
2018-04-08T22:30:50.093Z,7.10
2018-04-08T22:33:17.678Z,7.00
2018-04-08T22:35:45.269Z,7.50
2018-04-08T22:38:13.665Z,7.50
2018-04-08T22:40:41.253Z,6.43
2018-04-08T22:43:08.849Z,5.53
2018-04-08T22:45:36.446Z,6.10
2018-04-08T22:48:04.191Z,6.60
2018-04-08T22:50:31.903Z,7.03
2018-04-08T22:52:59.497Z,7.83
2018-04-08T22:55:27.099Z,7.33
2018-04-08T22:57:54.679Z,6.80
2018-04-08T23:00:26.989Z,7.20
2018-04-08T23:02:54.614Z,6.50
2018-04-08T23:05:22.201Z,6.77
2018-04-08T23:07:49.816Z,7.77
2018-04-08T23:10:17.899Z,6.27
2018-04-08T23:12:45.492Z,6.47
2018-04-08T23:15:13.104Z,6.90
2018-04-08T23:17:40.678Z,7.20
2018-04-08T23:20:08.248Z,7.00
2018-04-08T23:22:35.867Z,9.50
2018-04-08T23:25:04.243Z,10.93
2018-04-08T23:27:32.620Z,10.00
2018-04-08T23:30:00.969Z,9.00
2018-04-08T23:32:28.566Z,9.00
2018-04-08T23:34:56.963Z,7.90
2018-04-08T23:37:24.553Z,7.87
2018-04-08T23:39:52.162Z,7.57
2018-04-08T23:42:20.555Z,11.47
2018-04-08T23:44:48.129Z,9.63
2018-04-08T23:47:15.908Z,12.00
2018-04-08T23:49:43.534Z,11.40
2018-04-08T23:52:11.095Z,12.10
2018-04-08T23:54:39.444Z,11.63
2018-04-08T23:57:07.803Z,12.27
2018-04-08T23:59:35.412Z,12.50
